Time;durP1;ratioP1;P1;durP2;ratioP2;P2;SDS_P1;SDS_P2;PMS_P1;PMS_P2;Temp;Humidity;BMP_temperature;BMP_pressure;BME280_temperature;BME280_humidity;BME280_pressure;Samples;Min_cycle;Max_cycle;Signal;HPM_P1;HPM_P2
2022/10/03 00:01:37;;;;;;;;;8.25;8.25;24.70;99.90;;;;;;4999182;28;8821;-71
2022/10/03 00:04:39;;;;;;;;;8.00;8.00;24.70;99.90;;;;;;5000982;28;8818;-71
2022/10/03 00:07:59;;;;;;;;;9.25;9.00;24.50;99.90;;;;;;4989644;28;9605;-71
2022/10/03 00:10:50;;;;;;;;;9.75;9.75;24.40;99.90;;;;;;5003756;28;8824;-72
2022/10/03 00:13:49;;;;;;;;;10.00;10.00;24.30;99.90;;;;;;5003693;28;8838;-71
2022/10/03 00:16:39;;;;;;;;;10.00;10.00;24.20;99.90;;;;;;4999237;28;8837;-71
2022/10/03 00:19:39;;;;;;;;;9.50;9.50;24.10;99.90;;;;;;5004105;28;8839;-71
2022/10/03 00:22:58;;;;;;;;;9.25;9.25;24.00;99.90;;;;;;4997972;28;8863;-70
2022/10/03 00:25:33;;;;;;;;;10.00;10.00;24.00;99.90;;;;;;4990077;28;8847;-71
2022/10/03 00:28:31;;;;;;;;;14.50;14.50;23.80;99.90;;;;;;4998950;28;8831;-69
2022/10/03 00:31:41;;;;;;;;;23.67;23.00;23.80;99.90;;;;;;4997967;28;9700;-70
2022/10/03 00:34:27;;;;;;;;;31.67;30.67;23.70;99.90;;;;;;4997471;28;9236;-70
2022/10/03 00:37:17;;;;;;;;;39.50;35.25;23.60;99.90;;;;;;5021538;28;9586;-71
2022/10/03 00:40:06;;;;;;;;;35.25;33.25;23.40;99.90;;;;;;4991534;28;10045;-71
2022/10/03 00:43:04;;;;;;;;;27.67;27.67;23.30;99.90;;;;;;5022861;28;10058;-71
2022/10/03 00:46:05;;;;;;;;;19.67;19.00;23.30;99.90;;;;;;5024938;28;9298;-71
2022/10/03 00:49:07;;;;;;;;;11.00;11.00;23.20;99.90;;;;;;5006836;28;8918;-70
2022/10/03 00:52:08;;;;;;;;;12.00;12.00;23.20;99.90;;;;;;5004238;28;8838;-70
2022/10/03 00:54:46;;;;;;;;;9.00;9.00;23.00;99.90;;;;;;5021410;28;8833;-70
2022/10/03 00:57:26;;;;;;;;;10.75;10.75;23.00;99.90;;;;;;5017535;28;8861;-71
2022/10/03 01:00:14;;;;;;;;;9.75;9.75;23.00;99.90;;;;;;5022153;28;8857;-70
2022/10/03 01:03:18;;;;;;;;;9.00;9.00;23.00;99.90;;;;;;5005423;28;8834;-71
2022/10/03 01:06:29;;;;;;;;;7.00;7.00;22.90;99.90;;;;;;4997758;28;8904;-71
2022/10/03 01:09:32;;;;;;;;;8.75;8.75;22.90;99.90;;;;;;5004431;28;8854;-71
2022/10/03 01:12:15;;;;;;;;;9.50;9.50;22.70;99.90;;;;;;5021361;28;8806;-71
2022/10/03 01:15:10;;;;;;;;;8.75;8.75;22.70;99.90;;;;;;5002318;28;8854;-71
2022/10/03 01:18:12;;;;;;;;;8.50;8.50;22.60;99.90;;;;;;5005523;28;8818;-72
2022/10/03 01:21:11;;;;;;;;;8.00;8.00;22.60;99.90;;;;;;5020400;28;8830;-71
2022/10/03 01:24:18;;;;;;;;;11.25;11.25;22.50;99.90;;;;;;4992496;28;8870;-72
2022/10/03 01:26:59;;;;;;;;;9.00;9.00;22.40;99.90;;;;;;5023732;28;8845;-70
2022/10/03 01:32:47;;;;;;;;;9.25;9.25;22.30;99.90;;;;;;5019146;28;8806;-70
2022/10/03 01:35:28;;;;;;;;;8.50;8.50;22.20;99.90;;;;;;5005153;28;8838;-73
2022/10/03 01:38:30;;;;;;;;;9.50;9.50;22.10;99.90;;;;;;5020298;28;8862;-73
2022/10/03 01:41:32;;;;;;;;;9.00;9.00;22.00;99.90;;;;;;5009424;28;8838;-73
2022/10/03 01:44:28;;;;;;;;;9.50;9.50;22.00;99.90;;;;;;5023863;28;9583;-71
2022/10/03 01:47:17;;;;;;;;;10.00;10.00;21.90;99.90;;;;;;5002789;28;8846;-70
2022/10/03 01:50:07;;;;;;;;;9.25;9.25;21.80;99.90;;;;;;4988615;28;8819;-73
2022/10/03 01:52:52;;;;;;;;;8.25;8.25;21.80;99.90;;;;;;5002255;28;8838;-73
2022/10/03 01:55:54;;;;;;;;;11.00;11.00;21.70;99.90;;;;;;5004876;28;8861;-71
2022/10/03 01:58:44;;;;;;;;;10.00;10.00;21.60;99.90;;;;;;4985370;28;8854;-72
2022/10/03 02:01:39;;;;;;;;;12.75;12.75;21.60;99.90;;;;;;5018435;28;8810;-73
2022/10/03 02:04:14;;;;;;;;;10.25;10.25;21.60;99.90;;;;;;5004719;28;8843;-71
2022/10/03 02:07:48;;;;;;;;;10.50;10.50;21.50;99.90;;;;;;4985771;28;8956;-71
2022/10/03 02:10:52;;;;;;;;;8.75;8.75;21.40;99.90;;;;;;5004431;28;9039;-72
2022/10/03 02:13:57;;;;;;;;;10.00;10.00;21.30;99.90;;;;;;5023021;28;8848;-72
2022/10/03 02:17:02;;;;;;;;;9.75;9.75;21.30;99.90;;;;;;4998624;28;8839;-70
2022/10/03 02:20:03;;;;;;;;;13.00;13.00;21.20;99.90;;;;;;4988828;28;8850;-73
2022/10/03 02:22:44;;;;;;;;;11.50;11.50;21.10;99.90;;;;;;5020224;28;8860;-71
2022/10/03 02:25:39;;;;;;;;;11.00;11.00;21.00;99.90;;;;;;5001882;28;8853;-71
2022/10/03 02:28:15;;;;;;;;;14.00;14.00;21.00;99.90;;;;;;5000553;28;8963;-71
2022/10/03 02:30:57;;;;;;;;;11.00;11.00;21.00;99.90;;;;;;5015592;28;9076;-71
2022/10/03 02:34:15;;;;;;;;;12.00;12.00;20.90;99.90;;;;;;5001784;28;9037;-70
2022/10/03 02:37:26;;;;;;;;;15.00;15.00;20.90;99.90;;;;;;5001154;28;8939;-70
2022/10/03 02:40:50;;;;;;;;;11.25;11.25;20.80;99.90;;;;;;5014512;28;8857;-70
2022/10/03 02:43:31;;;;;;;;;14.67;14.67;20.70;99.90;;;;;;4996179;28;8885;-72
2022/10/03 02:46:19;;;;;;;;;15.33;15.33;20.60;99.90;;;;;;4984785;28;9027;-73
2022/10/03 02:49:06;;;;;;;;;13.00;13.00;20.60;99.90;;;;;;5009713;28;9073;-73
2022/10/03 02:51:50;;;;;;;;;10.00;10.00;20.70;99.90;;;;;;5026571;28;9810;-72
2022/10/03 02:54:55;;;;;;;;;12.00;12.00;20.60;99.90;;;;;;5021702;28;9028;-71
2022/10/03 02:58:02;;;;;;;;;11.00;11.00;20.60;99.90;;;;;;5022011;28;8900;-70
2022/10/03 03:00:54;;;;;;;;;15.00;15.00;20.50;99.90;;;;;;5014841;28;8932;-71
2022/10/03 03:03:31;;;;;;;;;14.00;14.00;20.40;99.90;;;;;;5017212;28;9084;-70
2022/10/03 03:06:20;;;;;;;;;6.67;6.67;20.30;99.90;;;;;;5015289;28;9242;-70
2022/10/03 03:09:29;;;;;;;;;13.00;13.00;20.20;99.90;;;;;;4998590;28;9037;-70
2022/10/03 03:12:32;;;;;;;;;12.00;12.00;20.20;99.90;;;;;;4976677;28;9226;-71
2022/10/03 03:15:17;;;;;;;;;13.00;13.00;20.10;99.90;;;;;;5016143;28;9169;-72
2022/10/03 03:18:46;;;;;;;;;10.33;10.33;20.10;99.90;;;;;;4999798;28;8935;-73
2022/10/03 03:21:49;;;;;;;;;10.67;10.67;20.00;99.90;;;;;;4950927;28;8991;-75
2022/10/03 03:24:41;;;;;;;;;11.00;11.00;20.10;99.90;;;;;;4994292;28;9073;-73
2022/10/03 03:28:06;;;;;;;;;11.33;11.33;20.10;99.90;;;;;;5020111;28;8999;-70
2022/10/03 03:31:16;;;;;;;;;14.33;14.33;20.10;99.90;;;;;;4930304;28;9028;-73
2022/10/03 03:34:21;;;;;;;;;11.00;11.00;20.00;99.90;;;;;;4981010;28;9081;-71
2022/10/03 03:37:43;;;;;;;;;12.00;12.00;19.90;99.90;;;;;;5018381;28;9036;-71
2022/10/03 03:40:31;;;;;;;;;11.00;11.00;20.00;99.90;;;;;;5017562;28;9083;-70
2022/10/03 03:43:17;;;;;;;;;11.67;11.67;20.00;99.90;;;;;;5021501;28;9024;-72
2022/10/03 03:46:34;;;;;;;;;11.67;11.67;20.00;99.90;;;;;;5026830;28;9145;-75
2022/10/03 03:49:22;;;;;;;;;12.00;12.00;19.90;99.90;;;;;;5026240;28;8910;-74
2022/10/03 03:52:19;;;;;;;;;11.00;11.00;19.90;99.90;;;;;;5019598;28;8910;-73
2022/10/03 03:55:23;;;;;;;;;10.33;10.33;19.80;99.90;;;;;;5015476;28;8943;-72
2022/10/03 03:58:25;;;;;;;;;12.00;12.00;19.80;99.90;;;;;;5001891;28;9159;-72
2022/10/03 04:01:35;;;;;;;;;12.33;12.33;19.80;99.90;;;;;;5025666;28;9251;-74
2022/10/03 04:04:26;;;;;;;;;8.67;8.67;19.70;99.90;;;;;;4991132;28;9149;-73
2022/10/03 04:07:31;;;;;;;;;12.00;12.00;19.60;99.90;;;;;;5020848;28;9311;-72
2022/10/03 04:10:41;;;;;;;;;10.33;10.33;19.60;99.90;;;;;;5003370;28;9334;-73
2022/10/03 04:13:22;;;;;;;;;11.00;11.00;19.60;99.90;;;;;;5003575;28;9177;-76
2022/10/03 04:18:56;;;;;;;;;12.00;12.00;19.50;99.90;;;;;;4990695;28;9172;-74
2022/10/03 04:19:45;;;;;;;;;10.00;10.00;19.60;99.90;;;;;;5001302;28;9166;-71
2022/10/03 04:22:45;;;;;;;;;12.67;12.67;19.60;99.90;;;;;;5020060;28;9277;-70
2022/10/03 04:26:06;;;;;;;;;11.67;11.67;19.60;99.90;;;;;;5006099;28;9161;-72
2022/10/03 04:29:04;;;;;;;;;14.00;11.67;19.50;99.90;;;;;;5004134;28;9179;-71
2022/10/03 04:31:58;;;;;;;;;13.67;13.67;19.40;99.90;;;;;;5021438;28;9246;-71
2022/10/03 04:34:36;;;;;;;;;11.33;11.33;19.30;99.90;;;;;;5004397;28;9073;-74
2022/10/03 04:37:20;;;;;;;;;13.50;13.50;19.30;99.90;;;;;;5004744;28;9095;-72
2022/10/03 04:40:21;;;;;;;;;16.00;14.67;19.30;99.90;;;;;;4988400;28;9244;-70
2022/10/03 04:43:02;;;;;;;;;9.00;9.00;19.30;99.90;;;;;;5023837;28;9382;-71
2022/10/03 04:45:57;;;;;;;;;15.00;15.00;19.20;99.90;;;;;;5003130;28;9300;-74
2022/10/03 04:48:49;;;;;;;;;13.33;13.33;19.20;99.90;;;;;;5022810;28;9353;-74
2022/10/03 04:51:33;;;;;;;;;11.67;11.67;19.30;99.90;;;;;;5008971;28;9466;-73
2022/10/03 04:54:35;;;;;;;;;14.33;14.33;19.30;99.90;;;;;;5021707;28;9309;-74
2022/10/03 04:57:21;;;;;;;;;9.33;9.33;19.20;99.90;;;;;;5022165;28;9421;-73
2022/10/03 05:00:23;;;;;;;;;14.00;14.00;19.10;99.90;;;;;;5001191;28;9170;-69
2022/10/03 05:02:57;;;;;;;;;13.33;13.33;18.90;99.90;;;;;;5011529;28;10157;-71
2022/10/03 05:05:47;;;;;;;;;13.00;13.00;18.80;99.90;;;;;;5004172;28;9176;-73
2022/10/03 05:08:43;;;;;;;;;14.00;13.00;18.70;99.90;;;;;;4998253;28;9443;-74
2022/10/03 05:11:19;;;;;;;;;10.00;10.00;18.70;99.90;;;;;;5020866;28;9318;-72
2022/10/03 05:14:04;;;;;;;;;10.33;10.33;18.70;99.90;;;;;;5019853;28;9387;-74
2022/10/03 05:16:53;;;;;;;;;9.33;9.33;18.70;99.90;;;;;;5003024;28;9456;-73
2022/10/03 05:19:45;;;;;;;;;11.00;11.00;18.60;99.90;;;;;;5003442;28;9277;-71
2022/10/03 05:22:42;;;;;;;;;14.33;14.33;18.60;99.90;;;;;;5019613;28;9470;-71
2022/10/03 05:25:57;;;;;;;;;13.00;12.33;18.60;99.90;;;;;;5021106;28;9378;-74
2022/10/03 05:29:17;;;;;;;;;11.67;11.67;18.60;99.90;;;;;;4976972;28;9481;-74
2022/10/03 05:32:30;;;;;;;;;11.00;11.00;18.50;99.90;;;;;;5017221;28;9412;-73
2022/10/03 05:35:22;;;;;;;;;10.00;10.00;18.30;99.90;;;;;;5018947;28;9379;-70
2022/10/03 05:38:16;;;;;;;;;14.00;14.00;18.40;99.90;;;;;;5023919;28;9361;-72
2022/10/03 05:41:19;;;;;;;;;10.67;10.67;18.50;99.90;;;;;;5018244;28;9449;-71
2022/10/03 05:44:19;;;;;;;;;11.00;9.00;18.40;99.90;;;;;;5019267;28;9364;-71
2022/10/03 05:47:43;;;;;;;;;12.33;11.67;18.40;99.90;;;;;;5012960;28;9302;-71
2022/10/03 05:50:56;;;;;;;;;10.00;10.00;18.40;99.90;;;;;;4953437;28;10451;-72
2022/10/03 05:53:57;;;;;;;;;11.00;11.00;18.40;99.90;;;;;;5019501;28;9357;-71
2022/10/03 05:57:04;;;;;;;;;8.00;8.00;18.40;99.90;;;;;;5017437;28;10107;-71
2022/10/03 06:00:19;;;;;;;;;9.00;9.00;18.20;99.90;;;;;;5018816;28;9303;-71
2022/10/03 06:03:35;;;;;;;;;10.00;10.00;18.30;99.90;;;;;;4992637;28;9418;-71
2022/10/03 06:06:56;;;;;;;;;8.67;8.67;18.20;99.90;;;;;;5012558;28;9696;-72
2022/10/03 06:09:30;;;;;;;;;11.33;11.33;18.00;99.90;;;;;;4950682;28;9463;-72
2022/10/03 06:12:39;;;;;;;;;10.75;10.75;17.90;99.90;;;;;;4978638;28;10262;-71
2022/10/03 06:15:17;;;;;;;;;9.33;9.33;17.80;99.90;;;;;;4996746;28;9712;-70
2022/10/03 06:18:16;;;;;;;;;11.75;11.75;17.70;99.90;;;;;;4973525;28;9548;-71
2022/10/03 06:21:10;;;;;;;;;9.67;9.67;17.80;99.90;;;;;;4995844;28;9761;-71
2022/10/03 06:24:16;;;;;;;;;9.75;9.75;18.00;99.90;;;;;;4975189;28;9656;-70
2022/10/03 06:27:24;;;;;;;;;14.25;14.25;18.50;99.90;;;;;;4979060;28;9774;-73
2022/10/03 06:30:23;;;;;;;;;9.67;9.67;18.30;99.90;;;;;;4998250;28;9821;-70
2022/10/03 06:33:38;;;;;;;;;10.75;10.75;18.20;99.90;;;;;;4981485;28;9500;-70
2022/10/03 06:36:31;;;;;;;;;9.50;9.50;17.90;99.90;;;;;;5009829;28;9888;-74
2022/10/03 06:39:39;;;;;;;;;10.50;10.50;17.80;99.90;;;;;;5002253;28;9708;-71
2022/10/03 06:43:08;;;;;;;;;11.00;10.25;17.70;99.90;;;;;;4998959;28;9685;-72
2022/10/03 06:46:02;;;;;;;;;9.75;9.50;17.60;99.90;;;;;;4935160;28;9704;-73
2022/10/03 06:49:02;;;;;;;;;7.00;7.00;17.70;99.90;;;;;;4984190;28;9642;-74
2022/10/03 06:52:05;;;;;;;;;12.00;12.00;17.60;99.90;;;;;;4959020;28;9631;-70
2022/10/03 06:54:57;;;;;;;;;8.00;8.00;17.60;99.90;;;;;;4999725;28;9813;-73
2022/10/03 06:58:07;;;;;;;;;7.50;7.50;17.70;99.90;;;;;;5008476;28;9519;-73
2022/10/03 07:01:16;;;;;;;;;10.00;10.00;17.70;99.90;;;;;;4984304;28;9549;-70
2022/10/03 07:04:06;;;;;;;;;9.25;9.25;17.60;99.90;;;;;;4995379;28;9743;-71
2022/10/03 07:07:06;;;;;;;;;9.67;9.67;17.60;99.90;;;;;;4995405;28;9620;-71
2022/10/03 07:10:16;;;;;;;;;9.25;9.25;17.60;99.90;;;;;;4996166;28;9619;-71
2022/10/03 07:12:56;;;;;;;;;9.00;9.00;17.70;99.90;;;;;;4999433;28;9783;-71
2022/10/03 07:15:57;;;;;;;;;13.00;13.00;17.60;99.90;;;;;;5017193;28;9650;-72
2022/10/03 07:19:24;;;;;;;;;8.50;8.50;17.40;99.90;;;;;;5014932;28;10647;-71
2022/10/03 07:22:25;;;;;;;;;8.75;8.75;17.60;99.90;;;;;;4998395;28;9693;-74
2022/10/03 07:25:09;;;;;;;;;8.00;8.00;17.50;99.90;;;;;;5017975;28;9672;-72
2022/10/03 07:27:57;;;;;;;;;8.75;8.75;17.50;99.90;;;;;;5013548;28;9739;-71
2022/10/03 07:30:52;;;;;;;;;8.75;8.75;17.50;99.90;;;;;;5020111;28;10685;-71
2022/10/03 07:33:34;;;;;;;;;9.00;9.00;17.40;99.90;;;;;;5002528;28;9708;-70
2022/10/03 07:39:33;;;;;;;;;7.67;7.67;17.30;99.90;;;;;;5015961;28;9550;-71
2022/10/03 07:42:55;;;;;;;;;5.33;5.33;17.40;99.90;;;;;;5016524;28;9615;-71
2022/10/03 07:45:33;;;;;;;;;6.75;6.75;17.30;99.90;;;;;;5006824;28;9606;-71
2022/10/03 07:48:45;;;;;;;;;7.67;7.67;17.20;99.90;;;;;;4999400;28;9568;-71
2022/10/03 07:51:51;;;;;;;;;8.50;8.50;17.20;99.90;;;;;;5002435;28;9534;-71
2022/10/03 07:54:35;;;;;;;;;8.00;8.00;17.20;99.90;;;;;;4997707;28;9879;-70
2022/10/03 07:57:41;;;;;;;;;8.00;8.00;17.20;99.90;;;;;;5019492;28;9697;-71
2022/10/03 08:00:23;;;;;;;;;9.00;9.00;17.30;99.90;;;;;;5001261;28;9567;-71
2022/10/03 08:03:21;;;;;;;;;8.50;7.50;17.40;99.90;;;;;;5016142;28;10007;-71
2022/10/03 08:05:57;;;;;;;;;8.25;8.25;17.40;99.90;;;;;;5020759;28;9678;-73
2022/10/03 08:08:52;;;;;;;;;7.25;6.25;17.40;99.90;;;;;;5018578;28;9784;-73
2022/10/03 08:12:04;;;;;;;;;7.00;7.00;17.50;99.90;;;;;;5001538;28;9660;-71
2022/10/03 08:15:19;;;;;;;;;8.00;8.00;17.50;99.90;;;;;;5004694;28;9930;-74
2022/10/03 08:18:15;;;;;;;;;5.25;5.25;17.50;99.90;;;;;;4992838;28;9941;-74
2022/10/03 08:21:01;;;;;;;;;3.00;3.00;17.50;99.90;;;;;;5003924;28;9651;-73
2022/10/03 08:23:56;;;;;;;;;5.00;5.00;17.40;99.90;;;;;;4999748;28;9907;-73
2022/10/03 08:26:55;;;;;;;;;6.50;6.50;17.30;99.90;;;;;;5015949;28;9756;-74
2022/10/03 08:29:55;;;;;;;;;7.00;7.00;17.30;99.90;;;;;;5021249;28;10148;-71
2022/10/03 08:32:47;;;;;;;;;6.25;6.25;17.20;99.90;;;;;;5018226;28;10552;-70
2022/10/03 08:35:41;;;;;;;;;5.50;5.50;17.20;99.90;;;;;;5004156;28;9988;-72
2022/10/03 08:38:50;;;;;;;;;6.25;6.25;17.20;99.90;;;;;;4988612;28;9943;-73
2022/10/03 08:41:41;;;;;;;;;6.75;6.75;17.20;99.90;;;;;;5017428;28;9997;-71
2022/10/03 08:44:41;;;;;;;;;3.25;3.25;17.30;99.90;;;;;;5020480;28;10174;-71
2022/10/03 08:47:40;;;;;;;;;7.75;7.75;17.30;99.90;;;;;;5018502;28;10133;-73
2022/10/03 08:50:39;;;;;;;;;11.00;9.00;17.20;99.90;;;;;;5020761;28;10163;-70
2022/10/03 08:53:47;;;;;;;;;7.00;7.00;17.10;99.90;;;;;;5017324;28;10241;-71
2022/10/03 08:56:42;;;;;;;;;9.00;9.00;17.10;99.90;;;;;;5021062;28;10049;-72
2022/10/03 08:59:55;;;;;;;;;7.50;7.50;17.10;99.90;;;;;;4964819;28;10764;-71
2022/10/03 09:02:47;;;;;;;;;11.00;11.00;17.10;99.90;;;;;;5018811;28;10049;-70
2022/10/03 09:06:11;;;;;;;;;8.75;8.75;17.20;99.90;;;;;;5017838;28;10048;-74
2022/10/03 09:09:28;;;;;;;;;9.75;9.75;17.00;99.90;;;;;;5000749;28;10134;-73
2022/10/03 09:12:41;;;;;;;;;10.25;10.25;17.00;99.90;;;;;;5017895;28;10292;-70
2022/10/03 09:16:07;;;;;;;;;7.50;7.50;17.00;99.90;;;;;;5021533;28;10071;-73
2022/10/03 09:19:00;;;;;;;;;13.00;13.00;16.90;99.90;;;;;;5033440;28;10685;-73
2022/10/03 09:22:03;;;;;;;;;10.50;10.50;17.00;99.90;;;;;;4999157;28;10324;-71
2022/10/03 09:25:00;;;;;;;;;11.75;11.75;17.00;99.90;;;;;;5018463;28;10803;-74
2022/10/03 09:28:04;;;;;;;;;10.75;10.75;17.00;99.90;;;;;;5011807;28;10257;-71
2022/10/03 09:31:04;;;;;;;;;11.50;11.50;17.00;99.90;;;;;;5006127;28;10512;-70
2022/10/03 09:34:02;;;;;;;;;13.00;13.00;16.80;99.90;;;;;;5020010;28;10296;-70
2022/10/03 09:36:51;;;;;;;;;12.00;12.00;16.60;99.90;;;;;;4984037;28;10387;-69
2022/10/03 09:39:58;;;;;;;;;10.25;10.25;16.60;99.90;;;;;;5019858;28;10609;-71
2022/10/03 09:42:48;;;;;;;;;12.25;11.75;16.60;99.90;;;;;;5002780;28;10593;-73
2022/10/03 09:45:42;;;;;;;;;12.50;12.50;16.60;99.90;;;;;;5001743;28;10383;-74
2022/10/03 09:48:35;;;;;;;;;14.75;13.50;16.40;99.90;;;;;;5020354;28;10559;-72
2022/10/03 09:51:08;;;;;;;;;15.25;15.25;16.50;99.90;;;;;;5032196;28;10577;-72
2022/10/03 09:53:43;;;;;;;;;15.25;15.25;16.40;99.90;;;;;;5020373;28;10788;-72
2022/10/03 09:56:53;;;;;;;;;12.50;12.50;16.30;99.90;;;;;;5016966;28;10836;-72
2022/10/03 09:59:27;;;;;;;;;10.50;10.50;16.20;99.90;;;;;;5002417;28;11643;-73
2022/10/03 10:02:28;;;;;;;;;11.25;11.25;16.10;99.90;;;;;;5019550;28;10815;-70
2022/10/03 10:05:33;;;;;;;;;11.00;11.00;16.10;99.90;;;;;;5020259;28;10639;-72
2022/10/03 10:08:23;;;;;;;;;9.25;9.25;16.00;99.90;;;;;;4999597;28;10613;-70
2022/10/03 10:11:20;;;;;;;;;11.25;11.25;15.90;99.90;;;;;;5029350;28;10312;-71
2022/10/03 10:14:17;;;;;;;;;13.75;13.75;15.90;99.90;;;;;;5015027;28;10346;-71
2022/10/03 10:17:06;;;;;;;;;9.25;9.25;16.00;99.90;;;;;;4999569;28;10418;-70
2022/10/03 10:19:54;;;;;;;;;10.00;10.00;16.00;99.90;;;;;;5016228;28;10564;-71
2022/10/03 10:22:56;;;;;;;;;11.50;11.50;16.00;99.90;;;;;;5028798;28;10338;-71
2022/10/03 10:25:47;;;;;;;;;11.25;11.25;15.90;99.90;;;;;;4985469;28;10183;-72
2022/10/03 10:28:24;;;;;;;;;10.50;10.50;16.00;99.90;;;;;;5001235;28;10339;-73
2022/10/03 10:31:26;;;;;;;;;10.00;10.00;16.00;99.90;;;;;;5019736;28;10329;-71
2022/10/03 10:34:52;;;;;;;;;9.75;9.75;16.10;99.90;;;;;;5018471;28;11100;-71
2022/10/03 10:38:04;;;;;;;;;8.75;8.75;16.10;99.90;;;;;;4995768;28;10091;-70
2022/10/03 10:40:57;;;;;;;;;10.25;10.25;15.90;99.90;;;;;;5016515;28;10266;-73
2022/10/03 10:43:43;;;;;;;;;8.50;8.50;15.90;99.90;;;;;;5017348;28;10226;-71
2022/10/03 10:46:27;;;;;;;;;8.75;8.75;15.90;99.90;;;;;;5014787;28;10270;-70
2022/10/03 10:49:30;;;;;;;;;8.75;8.75;15.90;99.90;;;;;;5002350;28;10240;-70
2022/10/03 10:52:27;;;;;;;;;10.75;10.75;15.80;99.90;;;;;;5015828;28;10032;-73
2022/10/03 10:55:19;;;;;;;;;11.50;11.50;15.90;99.90;;;;;;5001714;28;10198;-70
2022/10/03 10:58:26;;;;;;;;;12.25;12.25;15.70;99.90;;;;;;5017206;28;10188;-71
2022/10/03 11:01:26;;;;;;;;;11.00;11.00;15.80;99.90;;;;;;5003880;28;10227;-71
2022/10/03 11:04:16;;;;;;;;;13.50;12.50;15.80;99.90;;;;;;5003629;28;10417;-72
2022/10/03 11:07:03;;;;;;;;;10.00;10.00;15.90;99.90;;;;;;5030911;28;10405;-73
2022/10/03 11:10:14;;;;;;;;;10.25;10.25;15.80;99.90;;;;;;5004222;28;10344;-72
2022/10/03 11:13:17;;;;;;;;;12.00;12.00;15.80;99.90;;;;;;5018509;28;11278;-71
2022/10/03 11:16:06;;;;;;;;;11.00;11.00;15.40;99.90;;;;;;4981691;28;10684;-71
2022/10/03 11:18:58;;;;;;;;;13.00;13.00;15.70;99.90;;;;;;5016603;28;10512;-71
2022/10/03 11:21:35;;;;;;;;;11.00;10.25;15.60;99.90;;;;;;5014471;28;10645;-71
2022/10/03 11:24:56;;;;;;;;;12.00;12.00;15.50;99.90;;;;;;5014973;28;11409;-71
2022/10/03 11:27:44;;;;;;;;;13.00;11.75;15.60;99.90;;;;;;4953993;28;10431;-73
2022/10/03 11:30:29;;;;;;;;;11.75;11.75;15.50;99.90;;;;;;4968505;28;10597;-72
2022/10/03 11:33:06;;;;;;;;;10.00;10.00;15.40;99.90;;;;;;5014233;28;10638;-70
2022/10/03 11:35:58;;;;;;;;;12.25;12.25;15.40;99.90;;;;;;5018320;28;11281;-71
2022/10/03 11:38:45;;;;;;;;;14.00;14.00;15.40;99.90;;;;;;5012274;28;10323;-72
2022/10/03 11:41:30;;;;;;;;;13.50;13.50;15.30;99.90;;;;;;5020274;28;10924;-71
2022/10/03 11:44:25;;;;;;;;;12.00;12.00;15.20;99.90;;;;;;5001278;28;10636;-72
2022/10/03 11:47:32;;;;;;;;;13.00;12.75;15.20;99.90;;;;;;5018572;28;10511;-71
2022/10/03 11:50:11;;;;;;;;;12.75;12.75;15.20;99.90;;;;;;5015387;28;10609;-70
2022/10/03 11:53:18;;;;;;;;;10.50;10.50;15.30;99.90;;;;;;5002093;28;10526;-71
2022/10/03 11:56:40;;;;;;;;;15.00;13.25;15.10;99.90;;;;;;5016412;28;11574;-72
2022/10/03 11:59:36;;;;;;;;;13.00;13.00;15.20;99.90;;;;;;4993222;28;10647;-73
2022/10/03 12:02:24;;;;;;;;;12.00;12.00;15.20;99.90;;;;;;5010336;28;10641;-72
2022/10/03 12:05:18;;;;;;;;;13.00;13.00;15.20;99.90;;;;;;4981600;28;10411;-72
2022/10/03 12:11:28;;;;;;;;;13.75;13.75;15.30;99.90;;;;;;4916282;29;10686;-70
2022/10/03 12:14:02;;;;;;;;;14.25;14.25;15.30;99.90;;;;;;4998876;28;10696;-69
2022/10/03 12:17:04;;;;;;;;;16.25;16.25;15.30;99.90;;;;;;4999041;28;10680;-70
2022/10/03 12:20:06;;;;;;;;;13.75;13.75;15.20;99.90;;;;;;5014300;28;10727;-70
2022/10/03 12:22:57;;;;;;;;;12.00;12.00;14.90;99.90;;;;;;5012401;28;10675;-69
2022/10/03 12:25:35;;;;;;;;;14.25;14.25;14.90;99.90;;;;;;5014322;28;10847;-69
2022/10/03 12:28:21;;;;;;;;;13.25;13.25;14.70;99.90;;;;;;5001627;28;10663;-70
2022/10/03 12:31:30;;;;;;;;;13.25;13.25;14.70;99.90;;;;;;5022027;28;10864;-72
2022/10/03 12:34:25;;;;;;;;;11.25;11.25;14.70;99.90;;;;;;5022457;28;10762;-73
2022/10/03 12:37:24;;;;;;;;;12.50;12.50;15.00;99.90;;;;;;4989763;28;10551;-69
2022/10/03 12:40:05;;;;;;;;;15.00;15.00;14.90;99.90;;;;;;5005551;28;10732;-70
2022/10/03 12:42:53;;;;;;;;;15.50;15.50;15.00;99.90;;;;;;5001650;28;10946;-69
2022/10/03 12:46:02;;;;;;;;;14.25;14.25;15.10;99.90;;;;;;5023660;28;10797;-72
2022/10/03 12:48:54;;;;;;;;;12.25;12.25;15.00;99.90;;;;;;5002641;28;10759;-71
2022/10/03 12:51:57;;;;;;;;;16.00;14.50;15.10;99.90;;;;;;5019760;28;10637;-72
2022/10/03 12:54:47;;;;;;;;;12.50;12.50;15.00;99.90;;;;;;5020254;28;10624;-71
2022/10/03 12:57:45;;;;;;;;;14.25;14.25;15.10;99.90;;;;;;5021580;28;10634;-70
2022/10/03 13:00:43;;;;;;;;;13.75;13.75;15.40;99.90;;;;;;4991505;28;10568;-71
2022/10/03 13:03:33;;;;;;;;;14.75;14.75;15.50;99.90;;;;;;5023864;28;11472;-70
2022/10/03 13:06:32;;;;;;;;;14.00;13.75;15.70;99.90;;;;;;5023189;28;10774;-70
2022/10/03 13:09:36;;;;;;;;;13.00;13.00;15.60;99.90;;;;;;5004918;28;10608;-71
2022/10/03 13:12:33;;;;;;;;;11.75;11.50;15.80;99.90;;;;;;5004649;28;10723;-72
2022/10/03 13:15:40;;;;;;;;;14.00;12.75;15.60;99.90;;;;;;5004117;28;10466;-72
2022/10/03 13:18:26;;;;;;;;;3.50;2.00;15.60;99.90;;;;;;5021176;28;10831;-70
2022/10/03 13:21:25;;;;;;;;;12.75;12.75;15.80;99.90;;;;;;5022065;28;10743;-72
2022/10/03 13:24:46;;;;;;;;;16.00;16.00;16.10;99.90;;;;;;5008754;28;10593;-73
2022/10/03 13:28:04;;;;;;;;;11.75;11.75;15.80;99.90;;;;;;5001693;28;11569;-70
2022/10/03 13:30:52;;;;;;;;;15.00;14.75;16.20;99.90;;;;;;5004580;28;11543;-71
2022/10/03 13:33:31;;;;;;;;;13.25;13.25;16.20;99.90;;;;;;4998640;28;10743;-71
2022/10/03 13:36:08;;;;;;;;;12.50;12.50;16.20;99.90;;;;;;5016094;28;11556;-73
2022/10/03 13:39:18;;;;;;;;;15.75;15.75;16.30;99.90;;;;;;4994859;28;10628;-72
2022/10/03 13:42:10;;;;;;;;;14.25;14.25;16.50;99.90;;;;;;5007282;28;11380;-71
2022/10/03 13:44:56;;;;;;;;;13.75;13.75;16.60;99.90;;;;;;4999608;28;10640;-71
2022/10/03 13:48:06;;;;;;;;;15.25;15.25;16.80;99.90;;;;;;5015989;28;10707;-72
2022/10/03 13:50:57;;;;;;;;;15.75;13.75;16.80;99.90;;;;;;5001904;28;10563;-71
2022/10/03 13:54:05;;;;;;;;;13.75;13.75;16.90;99.90;;;;;;5019693;28;11976;-71
2022/10/03 13:57:00;;;;;;;;;14.50;14.50;16.90;99.90;;;;;;5018712;28;10487;-69
2022/10/03 13:59:40;;;;;;;;;14.25;14.25;16.90;99.90;;;;;;5001083;28;10474;-71
2022/10/03 14:02:35;;;;;;;;;18.00;17.50;16.70;99.90;;;;;;5000386;28;10741;-73
2022/10/03 14:05:37;;;;;;;;;13.75;13.75;16.80;99.90;;;;;;5000585;28;10679;-72
2022/10/03 14:08:42;;;;;;;;;14.00;14.00;16.90;99.90;;;;;;4985527;28;10414;-73
2022/10/03 14:11:38;;;;;;;;;14.50;14.50;17.00;99.90;;;;;;4978471;28;10517;-73
2022/10/03 14:14:20;;;;;;;;;13.00;13.00;17.00;99.90;;;;;;5002028;28;10565;-72
2022/10/03 14:17:41;;;;;;;;;14.50;12.50;17.10;99.90;;;;;;4999244;28;10337;-70
2022/10/03 14:21:02;;;;;;;;;10.75;10.75;17.40;99.90;;;;;;4971927;28;10373;-71
2022/10/03 14:23:48;;;;;;;;;11.50;10.25;17.60;99.90;;;;;;4988319;28;10426;-70
2022/10/03 14:26:28;;;;;;;;;12.50;12.50;17.80;99.90;;;;;;4999132;28;10365;-70
2022/10/03 14:29:38;;;;;;;;;12.50;12.50;17.90;99.90;;;;;;5017090;28;11094;-70
2022/10/03 14:32:44;;;;;;;;;8.75;8.75;18.10;99.90;;;;;;4999333;28;10276;-74
2022/10/03 14:35:39;;;;;;;;;14.50;14.50;18.20;99.90;;;;;;5015587;28;10376;-73
2022/10/03 14:39:00;;;;;;;;;13.25;13.25;18.30;99.90;;;;;;5019255;28;11349;-72
2022/10/03 14:45:51;;;;;;;;;12.00;12.00;18.40;99.90;;;;;;5001075;28;10669;-72
2022/10/03 14:48:57;;;;;;;;;13.75;13.75;18.40;99.90;;;;;;4997656;28;10281;-72
2022/10/03 14:51:38;;;;;;;;;14.50;14.50;18.50;99.90;;;;;;4999831;28;10344;-73
2022/10/03 14:54:36;;;;;;;;;16.50;16.50;18.60;99.90;;;;;;5013039;28;10529;-74
2022/10/03 14:57:35;;;;;;;;;15.75;15.75;18.60;99.90;;;;;;5002985;28;11075;-74
2022/10/03 15:00:57;;;;;;;;;20.25;20.25;18.80;99.90;;;;;;4995949;28;12119;-72
2022/10/03 15:03:36;;;;;;;;;24.25;24.25;19.00;99.90;;;;;;4999301;28;11186;-73
2022/10/03 15:06:31;;;;;;;;;24.25;23.00;19.20;99.90;;;;;;4998857;28;11131;-70
2022/10/03 15:09:21;;;;;;;;;18.50;18.50;19.30;99.90;;;;;;4985656;28;11148;-71
2022/10/03 15:12:22;;;;;;;;;12.25;12.25;19.50;99.90;;;;;;5017093;28;11047;-71
2022/10/03 15:15:42;;;;;;;;;12.75;11.75;19.60;99.90;;;;;;5023863;28;10562;-71
2022/10/03 15:18:24;;;;;;;;;12.75;12.00;19.70;99.90;;;;;;4943404;28;11364;-73
2022/10/03 15:20:59;;;;;;;;;10.75;10.75;19.90;99.90;;;;;;5000553;28;10232;-74
2022/10/03 15:23:52;;;;;;;;;12.50;10.75;19.90;99.90;;;;;;4984806;28;9703;-73
2022/10/03 15:26:36;;;;;;;;;8.67;8.67;20.00;99.90;;;;;;5016658;28;9861;-73